• Join FlightAware (Why Join?)
  • Login
  • US Flag 
10:13PM EST


 

Airport Tracker/Info


-or-


 

Live Flight TrackerFlight Track Log ✈ LBQ792 ✈ 03-May-2013 ✈ KSYR - KROC

Flight Track Log - Related Links

Times and Time Zones

All times are in EDT time to prevent confusion due to time zone crossing. See the LBQ792 flight status page for this flight to view local times or setup timezone preferences in your user account.

Time Position Orientation Groundspeed Altitude Reporting Facility
EDT Latitude Longitude Course Direction KTS MPH feet Rate Location/Type
10:00PM 43.1403 -76.0856 341° North 176 203 2,200  Level Boston Center
10:01PM 43.1897 -76.1083 341° North 200 230 3,800 1,560 Climbing Boston Center
10:02PM 43.2022 -76.1689 286° West 175 201 5,400 1,320 Climbing Boston Center
10:03PM 43.1997 -76.2428 267° West 188 216 6,500 540 Climbing Boston Center
10:04PM 43.1908 -76.3250 262° West 237 273 6,500  Level Boston Center
10:05PM 43.1833 -76.4214 264° West 240 276 6,500  Level Boston Center
10:06PM 43.1756 -76.5261 264° West 240 276 6,500  Level Boston Center
10:07PM 43.1706 -76.6028 265° West 241 277 6,500  Level Boston Center
10:08PM 43.1669 -76.7022 267° West 244 281 6,500  Level Boston Center
10:09PM 43.1653 -76.7317 266° West 243 280 6,500  Level Cleveland Center
10:10PM 43.1600 -76.8261 266° West 243 280 6,500  Level Cleveland Center
10:11PM 43.1547 -76.9231 266° West 244 281 6,500  Level Cleveland Center
10:12PM 43.1408 -77.0122 258° West 240 276 6,500  Level Cleveland Center
10:13PM 43.1206 -77.1017 253° West 242 278 6,500  Level Cleveland Center
10:14PM 43.0983 -77.1911 251° West 245 282 6,500  Level Cleveland Center
10:15PM 43.0778 -77.2775 252° West 244 281 6,500 -540 Level Cleveland Center
10:16PM 43.0553 -77.3667 251° West 248 285 5,500 -1,260 Descending Cleveland Center
10:17PM 43.0369 -77.4586 255° West 266 306 4,100 -1,500 Descending Cleveland Center
10:18PM 43.0375 -77.5522 270° West 258 297 2,700 -1,020 Descending Cleveland Center
10:19PM 43.0669 -77.6503 292° West 219 252 2,000 -600 Descending Cleveland Center
10:20PM 43.1014 -77.6942 317° Northwest 163 188 1,500 -540 Descending Cleveland Center
10:22PM 43.1167 -77.6667 36° Northeast  Level FlightAware Approximate
10:29PM 43.1191 -77.6719 36° Northeast  Level Estimated